x

East Dellwood (46207) Wave Buoy

2:00pm - Sat 20th Sep 2014 All times are PDT. -7 hours from GMT.

  • Sig Wave height 7.5ft
  • Peak Period 11s
  • Wind
    9mph, 11mph gusts
  • Sea Temp 56°f
  • Air Temp 58°f
  • Sea Pressure 1018.3mb
  • East Dellwood
  • East Dellwood

More Historic Weather Station data

Upgrade to MSW Pro to gain access to the past 30 days of data for over 8000 Wavebouys and Weather Stations around the globe.

Join Pro

Comparision Forecast

View Surf forecast
   
Sat 09/20 2:00pm 7.5ft 11s 9 11 mph 1018.3mb 56f 58f
1:00pm 7.5ft 12s 9 11 mph 1018.7mb 55f 58f
12:00pm 8ft 12s 11 13 mph 1019.2mb 55f 58f
11:00am 8ft 12s 13
mph
1019.3mb 55f 58f
10:00am 7.5ft 11s 13 16 mph 1019.2mb 55f 58f
9:00am 7.5ft 12s 16 18 mph 1019.1mb 55f 58f
8:00am 8ft 12s 13 18 mph 1019mb 55f 58f
7:00am 9ft 12s 13 16 mph 1019mb 55f 58f
6:00am 8ft 13s 13 16 mph 1018.8mb 55f 58f
5:00am 8.5ft 14s 16 20 mph 1018.6mb 55f 59f
4:00am 8.5ft 13s 16 18 mph 1018.6mb 55f 58f
3:00am 9ft 13s 18 20 mph 1018.6mb 55f 59f
2:00am 10ft 12s 18 20 mph 1018.5mb 55f 59f
1:00am 9.5ft 14s 18 20 mph 1018.5mb 55f 58f
12:00am 10.5ft 11s 18 20 mph 1018.3mb 55f 59f
Fri 09/19 11:00pm 11ft 13s 16 20 mph 1018.4mb 55f 58f
10:00pm 12ft 13s 13 18 mph 1018.5mb 56f 58f
9:00pm 12ft 13s 13 16 mph 1018.4mb 56f 58f
8:00pm 12ft 12s 11 13 mph 1018.4mb 56f 58f
7:00pm 12ft 14s 9 13 mph 1018.6mb 56f 58f
6:00pm 11.5ft 12s 11 13 mph 1018.5mb 56f 58f
5:00pm 12ft 12s 9 11 mph 1018.8mb 56f 58f
4:00pm 12ft 12s 9 11 mph 1018.9mb 56f 58f
3:00pm 11.5ft 12s 9
mph
1019.1mb 56f 58f
2:00pm 11ft 13s 7 9 mph 1018.8mb 56f 58f
1:00pm 11.5ft 12s 7 9 mph 1018.2mb 55f 58f
12:00pm 11ft 12s 7 9 mph 1017.9mb 55f 57f
11:00am 12.5ft 11s 7 9 mph 1017.1mb 55f 57f
10:00am 12ft 11s 7 9 mph 1016.7mb 55f 57f
9:00am 11ft 11s 7 9 mph 1016.2mb 55f 58f
8:00am 10ft 10s 7 9 mph 1015.3mb 55f 57f
7:00am 10ft 10s 7 9 mph 1014.6mb 54f 56f
6:00am 10ft 10s 7
mph
1013.8mb 54f 56f
5:00am 9ft 9s 7
mph
1013.3mb 54f 57f
4:00am 8ft 9s 9
mph
1013mb 54f 58f
3:00am 8ft 10s 7
mph
1012.7mb 54f 57f
2:00am 8ft 9s 7 9 mph 1011.7mb 55f 59f
1:00am 8ft 10s 9 11 mph 1010.5mb 56f 60f
12:00am 7ft 9s 7
mph
1009.8mb 57f 60f
Thu 09/18 11:00pm 7.5ft 8s 7 9 mph 1008.9mb 56f 60f
10:00pm 8ft 8s 9
mph
1008.4mb 55f 60f
9:00pm 9ft 8s 9 11 mph 1007.3mb 55f 60f
8:00pm 8ft 8s 9 11 mph 1005.7mb 56f 60f
7:00pm 7ft 7s 13
mph
1005.1mb 56f 60f
6:00pm 8ft 7s 13 16 mph 1004.2mb 56f 60f
5:00pm 7ft 6s 13 18 mph 1003.7mb 53f 60f
4:00pm 7ft 17s 20 22 mph 1003.4mb 53f 58f
3:00pm 6ft 18s 22 27 mph 1003.5mb 53f 58f
2:00pm 5.5ft 17s 22 27 mph 1003.6mb 53f 58f
1:00pm 4.5ft 17s 20 27 mph 1003.8mb 53f 58f
12:00pm 4.5ft 17s 16 20 mph 1003.8mb 53f 58f
11:00am 4.5ft 17s 13 16 mph 1004.1mb 53f 57f
10:00am 4.5ft 18s 11 13 mph 1004.4mb 54f 56f
9:00am 5ft 18s 11 13 mph 1004.3mb 54f 56f
8:00am 5ft 18s 11
mph
1004.2mb 54f 56f
7:00am 5ft 18s 7 9 mph 1004.2mb 54f 56f
6:00am 5ft 18s 7 9 mph 1004.2mb 55f 56f
5:00am 5ft 18s 7
mph
1004.4mb 54f 58f
4:00am 5ft 18s 9
mph
1004.7mb 53f 59f
3:00am 5ft 10s 11 13 mph 1004.8mb 56f 60f
2:00am 5ft 18s 13 16 mph 1005.2mb 55f 60f
1:00am 5ft 18s 9 11 mph 1005.2mb 53f 59f
12:00am 5.5ft 18s 7 9 mph 1005.3mb 53f 58f
Wed 09/17 11:00pm 5ft 18s 4 7 mph 1005.3mb 52f 54f
10:00pm 5ft 11s 7 9 mph 1005.5mb 52f 55f
9:00pm 5.5ft 11s 7 9 mph 1005.6mb 52f 55f
8:00pm 5ft 18s 7 9 mph 1005.7mb 52f 55f
7:00pm 6ft 11s 11 13 mph 1005.8mb 52f 55f
6:00pm 5.5ft 11s 13 16 mph 1005.8mb 52f 55f
5:00pm 5.5ft 11s 13 16 mph 1006.2mb 54f 55f
4:00pm 5.5ft 10s 13 18 mph 1006.4mb 56f 56f
3:00pm 5ft 12s 13 18 mph 1006.9mb 56f 56f
2:00pm 5ft 11s 9 13 mph 1007.5mb 57f 56f
1:00pm 5ft 12s 9 13 mph 1007.6mb 56f 55f
12:00pm 5ft 12s 13 16 mph 1007.5mb 56f 55f
11:00am 5.5ft 20s 11 13 mph 1007.5mb 55f 55f
10:00am 5ft 20s 9
mph
1007.6mb 53f 54f
9:00am 5.5ft 11s 9 11 mph 1007.7mb 54f 54f
8:00am 5.5ft 11s 9 11 mph 1007.9mb 55f 55f
7:00am 6.5ft 12s 4 7 mph 1008.2mb 56f 55f
6:00am 6ft 11s 4 7 mph 1008.2mb 56f 56f
5:00am 6.5ft 12s 4 7 mph 1008.4mb 58f 56f
4:00am 7ft 13s 7 9 mph 1008.9mb 59f 56f
3:00am 6.5ft 12s 7 9 mph 1009.2mb 59f 56f
2:00am 7ft 12s 7 9 mph 1009.5mb 59f 56f
1:00am 6ft 13s 7 9 mph 1010mb 59f 55f
12:00am 6ft 13s 4 7 mph 1010.5mb 59f 55f
Tue 09/16 11:00pm 7ft 13s 2 4 mph 1010.4mb 59f 55f